Fish Lake Valley, Nevada Weather observations

Data are for 10 minute period ending at time listed.
 Day   Time    Ave.   Ave.  Ave.  Vector   Max.   Stn.    Total    Solar   Ave.  
  of    of     Air    Rel.  Wind   Wind    Wind   Baro.  Precip.   Rad.    Soil  
Year   Day     Temp.  Hum.  Speed  Dir.    Gust   Pres.                    Temp. 
2015   (PST)    F      %     mph   deg.    mph     mb.     in.     W/m2     F    
--------------------------------------------------------------------------------- 
 142    5:50  999.0   999  999.0   999    999.0   999.0   999.00     999    999.0  
 142    6:00  999.0   999  999.0   999    999.0   999.0   999.00     999    999.0  
 142    6:10  999.0   999  999.0   999    999.0   999.0   999.00     999    999.0  
 142    6:20  999.0   999  999.0   999    999.0   999.0   999.00     999    999.0  
 142    6:30  999.0   999  999.0   999    999.0   999.0   999.00     999    999.0  
 142    6:40   45.9    85   11.2   307     14.9   850.0    0.00     144    57.6  
 142    6:50  999.0   999  999.0   999    999.0   999.0   999.00     999    999.0  
 142    7:00  999.0   999  999.0   999    999.0   999.0   999.00     999    999.0  
 142    7:10  999.0   999  999.0   999    999.0   999.0   999.00     999    999.0  
 142    7:20  999.0   999  999.0   999    999.0   999.0   999.00     999    999.0  
 142    7:30  999.0   999  999.0   999    999.0   999.0   999.00     999    999.0  
 142    7:40   48.1    83   10.0   303     13.5   850.4    0.00    1278    57.1  
 142    7:50  999.0   999  999.0   999    999.0   999.0   999.00     999    999.0  
 142    8:00  999.0   999  999.0   999    999.0   999.0   999.00     999    999.0  
 142    8:10  999.0   999  999.0   999    999.0   999.0   999.00     999    999.0  
 142    8:20  999.0   999  999.0   999    999.0   999.0   999.00     999    999.0  
 142    8:30  999.0   999  999.0   999    999.0   999.0   999.00     999    999.0  
 142    8:40   50.0    77   10.6   309     15.2   850.6    0.00    1395    56.6  
 142    8:50  999.0   999  999.0   999    999.0   999.0   999.00     999    999.0  
 142    9:00  999.0   999  999.0   999    999.0   999.0   999.00     999    999.0  
 142    9:10  999.0   999  999.0   999    999.0   999.0   999.00     999    999.0  
 142    9:20  999.0   999  999.0   999    999.0   999.0   999.00     999    999.0  
 142    9:30  999.0   999  999.0   999    999.0   999.0   999.00     999    999.0  
 142    9:40   53.1    70    9.9   311     14.9   850.4    0.00    1715    56.6  

Return to Fish Lake Valley, Nevada graphs page.


Western Regional Climate Center,wrcc@dri.edu